sensor_id;sensor_type;location;lat;lon;timestamp;P1;durP1;ratioP1;P2;durP2;ratioP2
71856;SDS011;63344;46.980;28.882;2023-12-14T00:01:19;69.35;;;28.60;;
71856;SDS011;63344;46.980;28.882;2023-12-14T00:03:47;68.15;;;26.92;;
71856;SDS011;63344;46.980;28.882;2023-12-14T00:06:17;66.60;;;25.48;;
71856;SDS011;63344;46.980;28.882;2023-12-14T00:08:46;58.08;;;25.17;;
71856;SDS011;63344;46.980;28.882;2023-12-14T00:11:28;73.93;;;29.13;;
71856;SDS011;63344;46.980;28.882;2023-12-14T00:13:55;70.93;;;26.20;;
71856;SDS011;63344;46.980;28.882;2023-12-14T00:16:51;47.58;;;20.13;;
71856;SDS011;63344;46.980;28.882;2023-12-14T00:19:30;68.82;;;26.92;;
71856;SDS011;63344;46.980;28.882;2023-12-14T00:22:11;58.40;;;23.30;;
71856;SDS011;63344;46.980;28.882;2023-12-14T00:24:40;52.53;;;21.10;;
71856;SDS011;63344;46.980;28.882;2023-12-14T00:27:07;62.42;;;26.40;;
71856;SDS011;63344;46.980;28.882;2023-12-14T00:29:35;47.92;;;19.90;;
71856;SDS011;63344;46.980;28.882;2023-12-14T00:32:02;54.03;;;21.55;;
71856;SDS011;63344;46.980;28.882;2023-12-14T00:34:30;49.15;;;21.48;;
71856;SDS011;63344;46.980;28.882;2023-12-14T00:36:58;55.90;;;23.70;;
71856;SDS011;63344;46.980;28.882;2023-12-14T00:39:25;64.97;;;25.58;;
71856;SDS011;63344;46.980;28.882;2023-12-14T00:41:52;57.38;;;25.60;;
71856;SDS011;63344;46.980;28.882;2023-12-14T00:44:20;60.92;;;26.02;;
71856;SDS011;63344;46.980;28.882;2023-12-14T00:46:47;60.20;;;25.77;;
71856;SDS011;63344;46.980;28.882;2023-12-14T00:49:15;57.97;;;23.90;;
71856;SDS011;63344;46.980;28.882;2023-12-14T00:51:44;66.97;;;27.00;;
71856;SDS011;63344;46.980;28.882;2023-12-14T00:54:12;67.70;;;25.88;;
71856;SDS011;63344;46.980;28.882;2023-12-14T00:56:39;64.82;;;27.80;;
71856;SDS011;63344;46.980;28.882;2023-12-14T00:59:07;61.03;;;25.05;;
71856;SDS011;63344;46.980;28.882;2023-12-14T01:01:34;56.80;;;24.98;;
71856;SDS011;63344;46.980;28.882;2023-12-14T01:04:02;61.63;;;24.52;;
71856;SDS011;63344;46.980;28.882;2023-12-14T01:06:29;60.58;;;25.42;;
71856;SDS011;63344;46.980;28.882;2023-12-14T01:08:57;58.53;;;24.83;;
71856;SDS011;63344;46.980;28.882;2023-12-14T01:11:24;63.28;;;26.65;;
71856;SDS011;63344;46.980;28.882;2023-12-14T01:13:52;62.92;;;25.35;;
71856;SDS011;63344;46.980;28.882;2023-12-14T01:16:19;69.10;;;25.10;;
71856;SDS011;63344;46.980;28.882;2023-12-14T01:18:47;64.40;;;24.48;;
71856;SDS011;63344;46.980;28.882;2023-12-14T01:21:14;65.93;;;26.30;;
71856;SDS011;63344;46.980;28.882;2023-12-14T01:23:42;60.30;;;23.85;;
71856;SDS011;63344;46.980;28.882;2023-12-14T01:26:09;60.88;;;25.90;;
71856;SDS011;63344;46.980;28.882;2023-12-14T01:28:37;56.63;;;24.65;;
71856;SDS011;63344;46.980;28.882;2023-12-14T01:31:05;62.55;;;25.63;;
71856;SDS011;63344;46.980;28.882;2023-12-14T01:33:33;61.28;;;25.77;;
71856;SDS011;63344;46.980;28.882;2023-12-14T01:36:00;60.47;;;25.73;;
71856;SDS011;63344;46.980;28.882;2023-12-14T01:38:30;64.85;;;25.00;;
71856;SDS011;63344;46.980;28.882;2023-12-14T01:40:57;64.78;;;22.15;;
71856;SDS011;63344;46.980;28.882;2023-12-14T01:43:26;69.60;;;24.77;;
71856;SDS011;63344;46.980;28.882;2023-12-14T01:45:53;56.40;;;24.48;;
71856;SDS011;63344;46.980;28.882;2023-12-14T01:48:21;57.22;;;20.98;;
71856;SDS011;63344;46.980;28.882;2023-12-14T01:50:48;54.45;;;21.42;;
71856;SDS011;63344;46.980;28.882;2023-12-14T01:53:16;62.95;;;24.15;;
71856;SDS011;63344;46.980;28.882;2023-12-14T01:55:43;61.08;;;24.10;;
71856;SDS011;63344;46.980;28.882;2023-12-14T01:58:11;56.58;;;21.83;;
71856;SDS011;63344;46.980;28.882;2023-12-14T02:00:42;57.05;;;24.50;;
71856;SDS011;63344;46.980;28.882;2023-12-14T02:03:30;52.10;;;22.45;;
71856;SDS011;63344;46.980;28.882;2023-12-14T02:05:58;50.97;;;21.23;;
71856;SDS011;63344;46.980;28.882;2023-12-14T02:08:25;50.10;;;21.35;;
71856;SDS011;63344;46.980;28.882;2023-12-14T02:10:55;56.97;;;22.35;;
71856;SDS011;63344;46.980;28.882;2023-12-14T02:13:23;48.03;;;22.90;;
71856;SDS011;63344;46.980;28.882;2023-12-14T02:15:52;55.50;;;22.02;;
71856;SDS011;63344;46.980;28.882;2023-12-14T02:18:21;51.20;;;22.38;;
71856;SDS011;63344;46.980;28.882;2023-12-14T02:20:48;53.25;;;21.08;;
71856;SDS011;63344;46.980;28.882;2023-12-14T02:23:17;46.03;;;19.00;;
71856;SDS011;63344;46.980;28.882;2023-12-14T02:25:59;55.15;;;21.40;;
71856;SDS011;63344;46.980;28.882;2023-12-14T02:28:27;48.40;;;20.70;;
71856;SDS011;63344;46.980;28.882;2023-12-14T02:30:54;52.90;;;21.85;;
71856;SDS011;63344;46.980;28.882;2023-12-14T02:33:24;39.28;;;17.48;;
71856;SDS011;63344;46.980;28.882;2023-12-14T02:35:51;45.30;;;18.77;;
71856;SDS011;63344;46.980;28.882;2023-12-14T02:38:19;34.80;;;17.17;;
71856;SDS011;63344;46.980;28.882;2023-12-14T02:40:47;42.10;;;16.58;;
71856;SDS011;63344;46.980;28.882;2023-12-14T02:43:17;41.40;;;19.85;;
71856;SDS011;63344;46.980;28.882;2023-12-14T02:45:44;53.60;;;22.40;;
71856;SDS011;63344;46.980;28.882;2023-12-14T02:48:14;46.67;;;20.95;;
71856;SDS011;63344;46.980;28.882;2023-12-14T02:50:44;48.00;;;21.20;;
71856;SDS011;63344;46.980;28.882;2023-12-14T02:53:12;49.78;;;20.42;;
71856;SDS011;63344;46.980;28.882;2023-12-14T02:55:40;48.08;;;20.83;;
71856;SDS011;63344;46.980;28.882;2023-12-14T02:58:08;52.22;;;19.33;;
71856;SDS011;63344;46.980;28.882;2023-12-14T03:00:35;50.63;;;21.05;;
71856;SDS011;63344;46.980;28.882;2023-12-14T03:03:03;47.03;;;19.13;;
71856;SDS011;63344;46.980;28.882;2023-12-14T03:05:45;44.97;;;20.42;;
71856;SDS011;63344;46.980;28.882;2023-12-14T03:08:18;45.42;;;19.50;;
71856;SDS011;63344;46.980;28.882;2023-12-14T03:10:46;41.83;;;17.45;;
71856;SDS011;63344;46.980;28.882;2023-12-14T03:13:16;42.72;;;16.73;;
71856;SDS011;63344;46.980;28.882;2023-12-14T03:15:45;41.63;;;19.38;;
71856;SDS011;63344;46.980;28.882;2023-12-14T03:18:13;50.50;;;20.85;;
71856;SDS011;63344;46.980;28.882;2023-12-14T03:20:40;45.67;;;20.38;;
71856;SDS011;63344;46.980;28.882;2023-12-14T03:23:08;38.22;;;16.25;;
71856;SDS011;63344;46.980;28.882;2023-12-14T03:25:35;42.67;;;20.00;;
71856;SDS011;63344;46.980;28.882;2023-12-14T03:28:03;41.80;;;18.63;;
71856;SDS011;63344;46.980;28.882;2023-12-14T03:30:31;41.72;;;18.75;;
71856;SDS011;63344;46.980;28.882;2023-12-14T03:32:59;43.50;;;18.58;;
71856;SDS011;63344;46.980;28.882;2023-12-14T03:35:26;43.35;;;18.73;;
71856;SDS011;63344;46.980;28.882;2023-12-14T03:37:53;40.33;;;17.75;;
71856;SDS011;63344;46.980;28.882;2023-12-14T03:40:20;38.42;;;17.88;;
71856;SDS011;63344;46.980;28.882;2023-12-14T03:42:48;35.80;;;17.00;;
71856;SDS011;63344;46.980;28.882;2023-12-14T03:45:15;36.55;;;17.23;;
71856;SDS011;63344;46.980;28.882;2023-12-14T03:47:42;38.70;;;16.15;;
71856;SDS011;63344;46.980;28.882;2023-12-14T03:50:12;38.88;;;16.77;;
71856;SDS011;63344;46.980;28.882;2023-12-14T03:52:42;31.95;;;16.98;;
71856;SDS011;63344;46.980;28.882;2023-12-14T03:55:11;35.92;;;16.25;;
71856;SDS011;63344;46.980;28.882;2023-12-14T03:57:42;38.70;;;16.48;;
71856;SDS011;63344;46.980;28.882;2023-12-14T04:00:10;29.85;;;15.00;;
71856;SDS011;63344;46.980;28.882;2023-12-14T04:02:40;35.28;;;16.17;;
71856;SDS011;63344;46.980;28.882;2023-12-14T04:05:07;33.45;;;16.15;;
71856;SDS011;63344;46.980;28.882;2023-12-14T04:07:39;30.05;;;14.30;;
71856;SDS011;63344;46.980;28.882;2023-12-14T04:12:37;32.83;;;14.82;;
71856;SDS011;63344;46.980;28.882;2023-12-14T04:15:05;27.38;;;13.80;;
71856;SDS011;63344;46.980;28.882;2023-12-14T04:17:34;34.05;;;15.15;;
71856;SDS011;63344;46.980;28.882;2023-12-14T04:20:03;31.85;;;15.80;;
71856;SDS011;63344;46.980;28.882;2023-12-14T04:22:33;30.10;;;14.43;;
71856;SDS011;63344;46.980;28.882;2023-12-14T04:25:02;30.30;;;14.80;;
71856;SDS011;63344;46.980;28.882;2023-12-14T04:27:30;32.95;;;13.85;;
71856;SDS011;63344;46.980;28.882;2023-12-14T04:30:11;29.17;;;14.32;;
71856;SDS011;63344;46.980;28.882;2023-12-14T04:32:45;26.83;;;14.60;;
71856;SDS011;63344;46.980;28.882;2023-12-14T04:35:15;24.73;;;13.90;;
71856;SDS011;63344;46.980;28.882;2023-12-14T04:37:59;28.35;;;13.93;;
71856;SDS011;63344;46.980;28.882;2023-12-14T04:40:51;28.75;;;13.63;;
71856;SDS011;63344;46.980;28.882;2023-12-14T04:43:51;32.95;;;13.18;;
71856;SDS011;63344;46.980;28.882;2023-12-14T04:46:26;31.02;;;14.23;;
71856;SDS011;63344;46.980;28.882;2023-12-14T04:48:53;29.50;;;14.48;;
71856;SDS011;63344;46.980;28.882;2023-12-14T04:51:20;25.27;;;13.85;;
71856;SDS011;63344;46.980;28.882;2023-12-14T04:53:48;24.15;;;11.63;;
71856;SDS011;63344;46.980;28.882;2023-12-14T04:56:16;26.05;;;11.77;;
71856;SDS011;63344;46.980;28.882;2023-12-14T04:58:48;28.27;;;12.90;;
71856;SDS011;63344;46.980;28.882;2023-12-14T05:01:20;31.65;;;14.25;;
71856;SDS011;63344;46.980;28.882;2023-12-14T05:31:47;26.60;;;13.07;;
71856;SDS011;63344;46.980;28.882;2023-12-14T06:20:36;21.15;;;12.77;;
71856;SDS011;63344;46.980;28.882;2023-12-14T06:23:37;21.85;;;10.57;;
71856;SDS011;63344;46.980;28.882;2023-12-14T17:45:10;7.00;;;3.88;;
71856;SDS011;63344;46.980;28.882;2023-12-14T17:47:39;5.25;;;3.63;;
71856;SDS011;63344;46.980;28.882;2023-12-14T17:50:08;4.97;;;3.42;;
71856;SDS011;63344;46.980;28.882;2023-12-14T17:55:06;4.97;;;2.83;;
71856;SDS011;63344;46.980;28.882;2023-12-14T17:58:50;5.18;;;3.00;;
71856;SDS011;63344;46.980;28.882;2023-12-14T18:10:36;20.65;;;8.55;;
71856;SDS011;63344;46.980;28.882;2023-12-14T18:35:33;8.40;;;5.35;;
71856;SDS011;63344;46.980;28.882;2023-12-14T20:33:37;11.70;;;6.00;;
71856;SDS011;63344;46.980;28.882;2023-12-14T21:06:16;6.60;;;4.00;;
71856;SDS011;63344;46.980;28.882;2023-12-14T21:09:40;8.45;;;5.03;;
71856;SDS011;63344;46.980;28.882;2023-12-14T21:15:46;11.18;;;5.18;;
71856;SDS011;63344;46.980;28.882;2023-12-14T21:22:20;6.63;;;4.22;;
71856;SDS011;63344;46.980;28.882;2023-12-14T21:28:01;6.72;;;3.58;;
71856;SDS011;63344;46.980;28.882;2023-12-14T21:30:46;6.10;;;3.50;;
71856;SDS011;63344;46.980;28.882;2023-12-14T21:33:46;6.82;;;4.28;;
71856;SDS011;63344;46.980;28.882;2023-12-14T21:36:25;6.55;;;3.38;;
71856;SDS011;63344;46.980;28.882;2023-12-14T21:39:14;7.60;;;4.13;;
71856;SDS011;63344;46.980;28.882;2023-12-14T21:45:55;7.15;;;4.32;;
71856;SDS011;63344;46.980;28.882;2023-12-14T21:48:49;7.78;;;4.25;;
71856;SDS011;63344;46.980;28.882;2023-12-14T21:51:41;8.63;;;4.35;;
71856;SDS011;63344;46.980;28.882;2023-12-14T21:56:58;7.28;;;4.05;;
71856;SDS011;63344;46.980;28.882;2023-12-14T21:59:53;5.28;;;3.28;;
71856;SDS011;63344;46.980;28.882;2023-12-14T22:02:41;8.00;;;4.43;;
71856;SDS011;63344;46.980;28.882;2023-12-14T22:05:33;7.40;;;3.95;;
71856;SDS011;63344;46.980;28.882;2023-12-14T22:08:26;11.48;;;4.72;;
71856;SDS011;63344;46.980;28.882;2023-12-14T22:11:11;6.32;;;3.35;;
71856;SDS011;63344;46.980;28.882;2023-12-14T22:21:01;7.75;;;3.75;;
71856;SDS011;63344;46.980;28.882;2023-12-14T22:23:35;7.40;;;3.85;;
71856;SDS011;63344;46.980;28.882;2023-12-14T22:26:39;7.43;;;4.60;;
71856;SDS011;63344;46.980;28.882;2023-12-14T22:29:23;7.28;;;4.18;;
71856;SDS011;63344;46.980;28.882;2023-12-14T22:31:56;9.55;;;5.70;;
71856;SDS011;63344;46.980;28.882;2023-12-14T22:34:57;6.43;;;3.95;;
71856;SDS011;63344;46.980;28.882;2023-12-14T22:38:36;8.55;;;4.90;;
71856;SDS011;63344;46.980;28.882;2023-12-14T22:41:38;10.38;;;5.07;;
71856;SDS011;63344;46.980;28.882;2023-12-14T22:44:27;8.43;;;5.07;;
71856;SDS011;63344;46.980;28.882;2023-12-14T22:50:53;8.20;;;4.30;;
71856;SDS011;63344;46.980;28.882;2023-12-14T22:57:49;6.38;;;3.72;;
71856;SDS011;63344;46.980;28.882;2023-12-14T23:03:44;7.28;;;4.15;;
71856;SDS011;63344;46.980;28.882;2023-12-14T23:06:31;7.50;;;4.47;;
71856;SDS011;63344;46.980;28.882;2023-12-14T23:09:19;8.30;;;3.60;;
71856;SDS011;63344;46.980;28.882;2023-12-14T23:12:00;5.32;;;3.42;;
71856;SDS011;63344;46.980;28.882;2023-12-14T23:14:45;8.13;;;4.80;;
71856;SDS011;63344;46.980;28.882;2023-12-14T23:17:40;7.13;;;4.47;;
71856;SDS011;63344;46.980;28.882;2023-12-14T23:20:16;7.78;;;4.30;;
71856;SDS011;63344;46.980;28.882;2023-12-14T23:23:16;9.70;;;5.10;;
71856;SDS011;63344;46.980;28.882;2023-12-14T23:25:53;7.47;;;4.32;;
71856;SDS011;63344;46.980;28.882;2023-12-14T23:28:39;6.85;;;4.28;;
71856;SDS011;63344;46.980;28.882;2023-12-14T23:31:17;14.23;;;4.57;;
71856;SDS011;63344;46.980;28.882;2023-12-14T23:34:04;9.25;;;4.18;;
71856;SDS011;63344;46.980;28.882;2023-12-14T23:36:56;8.40;;;4.50;;
71856;SDS011;63344;46.980;28.882;2023-12-14T23:39:48;6.88;;;3.88;;
71856;SDS011;63344;46.980;28.882;2023-12-14T23:45:21;5.75;;;3.90;;
71856;SDS011;63344;46.980;28.882;2023-12-14T23:48:14;10.25;;;5.30;;
71856;SDS011;63344;46.980;28.882;2023-12-14T23:50:53;7.43;;;3.70;;
71856;SDS011;63344;46.980;28.882;2023-12-14T23:53:36;7.75;;;4.43;;
71856;SDS011;63344;46.980;28.882;2023-12-14T23:56:49;9.90;;;4.05;;
71856;SDS011;63344;46.980;28.882;2023-12-14T23:59:32;8.27;;;4.20;;
